createdAt,value
2019-02-27T00:00:20.496Z,7.50
2019-02-27T00:02:48.920Z,7.50
2019-02-27T00:05:17.328Z,7.50
2019-02-27T00:07:45.720Z,7.50
2019-02-27T00:10:14.259Z,7.50
2019-02-27T00:12:42.669Z,7.40
2019-02-27T00:15:11.393Z,7.40
2019-02-27T00:17:40.726Z,7.40
2019-02-27T00:20:09.554Z,7.40
2019-02-27T00:22:38.022Z,7.30
2019-02-27T00:25:07.512Z,7.30
2019-02-27T00:27:35.931Z,7.30
2019-02-27T00:30:06.077Z,7.30
2019-02-27T00:32:34.712Z,7.30
2019-02-27T00:35:06.517Z,7.20
2019-02-27T00:37:33.548Z,7.30
2019-02-27T00:40:05.273Z,7.30
2019-02-27T00:42:33.809Z,7.30
2019-02-27T00:45:06.728Z,7.30
2019-02-27T00:47:32.428Z,7.30
2019-02-27T00:50:05.788Z,7.20
2019-02-27T00:52:31.260Z,7.20
2019-02-27T00:55:04.242Z,7.20
2019-02-27T00:57:29.775Z,7.10
2019-02-27T00:59:58.189Z,7.10
2019-02-27T01:02:26.582Z,7.00
2019-02-27T01:04:55.009Z,7.00
2019-02-27T01:07:23.376Z,6.90
2019-02-27T01:09:51.777Z,6.90
2019-02-27T01:12:22.881Z,6.80
2019-02-27T01:14:51.187Z,6.80
2019-02-27T01:17:23.439Z,6.80
2019-02-27T01:19:49.712Z,6.70
2019-02-27T01:22:18.109Z,6.60
2019-02-27T01:24:49.905Z,6.60
2019-02-27T01:27:16.644Z,6.60
2019-02-27T01:29:45.048Z,6.50
2019-02-27T01:32:13.456Z,6.50
2019-02-27T01:34:44.216Z,6.40
2019-02-27T01:37:12.033Z,6.40
2019-02-27T01:39:41.863Z,6.30
2019-02-27T01:42:10.556Z,6.30
2019-02-27T01:44:39.515Z,6.30
2019-02-27T01:47:07.946Z,6.20
2019-02-27T01:49:36.329Z,6.20
2019-02-27T01:52:04.729Z,6.20
2019-02-27T01:54:33.173Z,6.20
2019-02-27T01:57:02.875Z,6.20
2019-02-27T01:59:31.680Z,6.10
2019-02-27T02:02:01.065Z,6.10
2019-02-27T02:04:30.216Z,6.00
2019-02-27T02:06:58.608Z,6.00
2019-02-27T02:09:32.796Z,6.00
2019-02-27T02:12:13.434Z,6.00
2019-02-27T02:14:54.098Z,6.00
2019-02-27T02:17:41.026Z,6.00
2019-02-27T02:20:35.659Z,6.00
2019-02-27T02:23:44.933Z,5.90
2019-02-27T02:26:36.061Z,5.90
2019-02-27T02:29:24.072Z,5.90
2019-02-27T02:32:01.085Z,5.90
2019-02-27T02:34:40.152Z,5.80
2019-02-27T02:37:22.984Z,5.80
2019-02-27T02:40:09.376Z,5.70
2019-02-27T02:42:59.193Z,5.70
2019-02-27T02:45:36.575Z,5.70
2019-02-27T02:48:10.599Z,5.70
2019-02-27T02:50:42.111Z,5.70
2019-02-27T02:53:16.240Z,5.70
2019-02-27T02:55:50.349Z,5.70
2019-02-27T02:58:24.898Z,5.70
2019-02-27T03:01:13.994Z,5.70
2019-02-27T03:03:41.728Z,5.70
2019-02-27T03:06:48.291Z,5.60
2019-02-27T03:09:40.661Z,5.60
2019-02-27T03:12:43.774Z,5.60
2019-02-27T03:15:35.153Z,5.60
2019-02-27T03:18:12.527Z,5.60
2019-02-27T03:20:53.210Z,5.60
2019-02-27T03:23:30.137Z,5.60
2019-02-27T03:26:16.550Z,5.60
2019-02-27T03:28:58.856Z,5.60
2019-02-27T03:31:32.901Z,5.60
2019-02-27T03:34:22.339Z,5.60
2019-02-27T03:37:18.169Z,5.70
2019-02-27T03:40:18.724Z,5.70
2019-02-27T03:42:56.320Z,5.60
2019-02-27T03:45:36.543Z,5.60
2019-02-27T03:48:20.099Z,5.60
2019-02-27T03:51:26.750Z,5.60
2019-02-27T03:54:04.191Z,5.60
2019-02-27T03:56:47.449Z,5.60
2019-02-27T03:59:22.002Z,5.60
2019-02-27T04:02:11.722Z,5.50
2019-02-27T04:05:05.397Z,5.60
2019-02-27T04:07:50.951Z,5.60
2019-02-27T04:10:19.383Z,5.50
2019-02-27T04:12:51.417Z,5.50
2019-02-27T04:15:18.860Z,5.40
2019-02-27T04:17:51.966Z,5.40
2019-02-27T04:20:17.134Z,5.30
2019-02-27T04:22:45.537Z,5.30
2019-02-27T04:25:13.956Z,5.20
2019-02-27T04:27:42.342Z,5.20
2019-02-27T04:30:14.706Z,5.20
2019-02-27T04:32:41.170Z,5.30
2019-02-27T04:35:09.566Z,5.20
2019-02-27T04:37:38.066Z,5.20
2019-02-27T04:40:10.825Z,5.20
2019-02-27T04:42:38.330Z,5.20
2019-02-27T04:45:12.262Z,5.20
2019-02-27T04:47:40.044Z,5.20
2019-02-27T04:50:10.934Z,5.20
2019-02-27T04:52:38.664Z,5.20
2019-02-27T04:55:07.406Z,5.20
2019-02-27T04:57:35.826Z,5.20
2019-02-27T05:00:04.993Z,5.20
2019-02-27T05:02:33.394Z,5.10
2019-02-27T05:05:01.791Z,5.10
2019-02-27T05:07:30.290Z,5.10
2019-02-27T05:09:58.690Z,5.10
2019-02-27T05:12:27.092Z,5.10
2019-02-27T05:14:55.501Z,5.10
2019-02-27T05:17:23.919Z,5.10
2019-02-27T05:19:52.355Z,5.10
2019-02-27T05:22:20.752Z,5.00
2019-02-27T05:24:49.199Z,5.00
2019-02-27T05:27:17.621Z,5.00
2019-02-27T05:29:46.047Z,5.00
2019-02-27T05:32:14.446Z,4.90
2019-02-27T05:34:42.844Z,4.90
2019-02-27T05:37:11.270Z,4.80
2019-02-27T05:39:39.661Z,4.80
2019-02-27T05:42:08.105Z,4.80
2019-02-27T05:44:36.636Z,4.70
2019-02-27T05:47:05.029Z,4.70
2019-02-27T05:49:33.449Z,4.70
2019-02-27T05:52:04.514Z,4.70
2019-02-27T05:54:32.971Z,4.60
2019-02-27T05:57:01.409Z,4.60
2019-02-27T05:59:29.950Z,4.60
2019-02-27T06:01:58.412Z,4.60
2019-02-27T06:04:27.268Z,4.60
2019-02-27T06:06:55.653Z,4.60
2019-02-27T06:09:24.063Z,4.60
2019-02-27T06:11:52.499Z,4.50
2019-02-27T06:14:21.361Z,4.60
2019-02-27T06:16:50.478Z,4.50
2019-02-27T06:19:18.919Z,4.50
2019-02-27T06:21:47.381Z,4.50
2019-02-27T06:24:15.781Z,4.50
2019-02-27T06:26:44.215Z,4.50
2019-02-27T06:29:12.612Z,4.50
2019-02-27T06:31:41.009Z,4.50
2019-02-27T06:34:09.509Z,4.50
2019-02-27T06:36:41.866Z,4.50
2019-02-27T06:39:08.716Z,4.50
2019-02-27T06:41:37.346Z,4.50
2019-02-27T06:44:05.758Z,4.50
2019-02-27T06:46:34.173Z,4.50
2019-02-27T06:49:02.573Z,4.50
2019-02-27T06:51:33.360Z,4.50
2019-02-27T06:54:03.661Z,4.50
2019-02-27T06:56:32.116Z,4.60
2019-02-27T06:59:00.590Z,4.60
2019-02-27T07:01:29.017Z,4.60
2019-02-27T07:03:57.426Z,4.70
2019-02-27T07:06:25.929Z,4.70
2019-02-27T07:08:54.345Z,4.80
2019-02-27T07:11:23.003Z,4.90
2019-02-27T07:13:51.402Z,4.90
2019-02-27T07:16:20.499Z,5.00
2019-02-27T07:18:49.966Z,5.10
2019-02-27T07:21:18.374Z,5.10
2019-02-27T07:23:46.777Z,5.20
2019-02-27T07:26:15.808Z,5.30
2019-02-27T07:28:44.913Z,5.40
2019-02-27T07:31:17.339Z,5.50
2019-02-27T07:33:43.457Z,5.60
2019-02-27T07:36:11.853Z,5.70
2019-02-27T07:38:41.032Z,5.70
2019-02-27T07:41:10.059Z,5.80
2019-02-27T07:43:38.946Z,5.90
2019-02-27T07:46:07.398Z,6.00
2019-02-27T07:48:36.319Z,6.10
2019-02-27T07:51:04.738Z,6.10
2019-02-27T07:53:33.122Z,6.20
2019-02-27T07:56:01.698Z,6.30
2019-02-27T07:58:33.684Z,6.40
2019-02-27T08:01:04.860Z,6.50
2019-02-27T08:03:33.262Z,6.60
2019-02-27T08:06:02.489Z,6.70
2019-02-27T08:08:31.462Z,6.70
2019-02-27T08:11:00.358Z,6.80
2019-02-27T08:13:29.664Z,6.90
2019-02-27T08:15:58.742Z,6.90
2019-02-27T08:18:30.456Z,7.00
2019-02-27T08:20:57.568Z,7.10
2019-02-27T08:23:25.961Z,7.20
2019-02-27T08:25:54.364Z,7.30
2019-02-27T08:28:22.798Z,7.50
2019-02-27T08:30:51.194Z,7.60
2019-02-27T08:33:19.600Z,7.70
2019-02-27T08:35:48.046Z,7.80
2019-02-27T08:38:16.442Z,7.80
2019-02-27T08:40:44.842Z,8.00
2019-02-27T08:43:13.290Z,8.10
2019-02-27T08:45:41.697Z,8.20
2019-02-27T08:48:10.126Z,8.30
2019-02-27T08:50:38.614Z,8.40
2019-02-27T08:53:07.014Z,8.60
2019-02-27T08:55:38.974Z,8.60
2019-02-27T08:58:07.226Z,8.70
2019-02-27T09:00:36.218Z,8.70
2019-02-27T09:03:04.866Z,8.80
2019-02-27T09:05:33.330Z,8.80
2019-02-27T09:08:07.400Z,9.00
2019-02-27T09:10:34.642Z,9.10
2019-02-27T09:13:05.855Z,9.30
2019-02-27T09:15:33.196Z,9.40
2019-02-27T09:18:01.748Z,9.60
2019-02-27T09:20:31.025Z,9.70
2019-02-27T09:22:59.710Z,9.90
2019-02-27T09:25:28.104Z,10.00
2019-02-27T09:27:56.537Z,10.30
2019-02-27T09:30:28.858Z,10.40
2019-02-27T09:32:55.994Z,10.60
2019-02-27T09:35:24.398Z,10.80
2019-02-27T09:37:52.862Z,10.90
2019-02-27T09:40:29.861Z,11.10
2019-02-27T09:42:58.408Z,11.30
2019-02-27T09:45:35.200Z,11.50
2019-02-27T09:48:04.695Z,11.70
2019-02-27T09:50:47.652Z,11.80
2019-02-27T09:53:14.914Z,12.00
2019-02-27T09:55:43.377Z,12.20
2019-02-27T09:58:12.346Z,12.40
2019-02-27T10:00:43.362Z,12.60
2019-02-27T10:03:11.854Z,12.70
2019-02-27T10:05:40.873Z,12.90
2019-02-27T10:08:10.544Z,13.10
2019-02-27T10:10:38.962Z,13.30
2019-02-27T10:13:07.357Z,13.50
2019-02-27T10:15:35.796Z,13.70
2019-02-27T10:18:04.249Z,13.90
2019-02-27T10:20:36.871Z,13.90
2019-02-27T10:23:03.090Z,14.10
2019-02-27T10:25:31.489Z,14.10
2019-02-27T10:28:03.384Z,14.30
2019-02-27T10:30:30.064Z,14.50
2019-02-27T10:32:58.466Z,14.60
2019-02-27T10:35:29.503Z,14.70
2019-02-27T10:37:57.283Z,14.90
2019-02-27T10:40:27.594Z,15.00
2019-02-27T10:42:55.989Z,15.10
2019-02-27T10:45:24.421Z,15.20
2019-02-27T10:47:52.901Z,15.50
2019-02-27T10:50:21.309Z,15.60
2019-02-27T10:52:50.305Z,15.80
2019-02-27T10:55:20.295Z,15.90
2019-02-27T10:57:48.689Z,16.10
2019-02-27T11:00:25.219Z,16.40
2019-02-27T11:02:53.736Z,16.50
2019-02-27T11:05:22.825Z,16.70
2019-02-27T11:07:53.048Z,16.80
2019-02-27T11:10:22.271Z,17.00
2019-02-27T11:12:50.637Z,17.20
2019-02-27T11:15:23.030Z,17.40
2019-02-27T11:17:51.449Z,17.50
2019-02-27T11:20:21.118Z,17.70
2019-02-27T11:22:50.151Z,17.80
2019-02-27T11:25:27.419Z,17.90
2019-02-27T11:27:55.842Z,18.00
2019-02-27T11:30:35.836Z,18.20
2019-02-27T11:33:02.949Z,18.30
2019-02-27T11:35:31.379Z,18.60
2019-02-27T11:37:59.892Z,18.70
2019-02-27T11:40:28.589Z,18.90
2019-02-27T11:42:57.034Z,19.00
2019-02-27T11:45:25.433Z,19.10
2019-02-27T11:47:54.125Z,19.10
2019-02-27T11:50:22.575Z,19.20
2019-02-27T11:52:51.405Z,19.30
2019-02-27T11:55:21.453Z,19.40
2019-02-27T11:57:50.042Z,19.50
2019-02-27T12:00:24.138Z,19.70
2019-02-27T12:02:52.590Z,19.90
2019-02-27T12:05:21.090Z,20.10
2019-02-27T12:07:51.211Z,20.30
2019-02-27T12:10:25.517Z,20.50
2019-02-27T12:12:56.632Z,20.70
2019-02-27T12:15:27.155Z,20.90
2019-02-27T12:17:59.849Z,21.20
2019-02-27T12:20:25.486Z,21.40
2019-02-27T12:22:53.910Z,21.60
2019-02-27T12:25:26.858Z,21.80
2019-02-27T12:27:54.352Z,22.00
2019-02-27T12:30:27.874Z,22.30
2019-02-27T12:35:27.344Z,22.90
2019-02-27T12:37:55.741Z,23.20
2019-02-27T12:40:25.158Z,23.40
2019-02-27T12:42:53.982Z,23.70
2019-02-27T12:45:25.855Z,24.00
2019-02-27T12:47:55.101Z,24.20
2019-02-27T12:50:26.854Z,24.50
2019-02-27T12:52:55.605Z,24.80
2019-02-27T12:55:24.443Z,25.20
2019-02-27T12:57:53.085Z,25.60
2019-02-27T13:00:32.742Z,26.00
2019-02-27T13:03:01.178Z,26.40
2019-02-27T13:05:29.930Z,26.70
2019-02-27T13:07:58.432Z,26.90
2019-02-27T13:10:33.171Z,27.10
2019-02-27T13:12:57.678Z,27.50
2019-02-27T13:15:28.306Z,27.70
2019-02-27T13:17:57.982Z,27.80
2019-02-27T13:20:28.047Z,28.00
2019-02-27T13:22:56.434Z,28.10
2019-02-27T13:25:25.615Z,28.20
2019-02-27T13:27:54.377Z,28.30
2019-02-27T13:30:24.036Z,28.30
2019-02-27T13:32:52.473Z,28.10
2019-02-27T13:35:23.200Z,27.90
2019-02-27T13:37:51.221Z,28.20
2019-02-27T13:40:24.290Z,28.50
2019-02-27T13:42:53.674Z,28.20
2019-02-27T13:45:24.626Z,27.90
2019-02-27T13:47:53.174Z,27.90
2019-02-27T13:50:23.607Z,28.00
2019-02-27T13:52:51.886Z,27.90
2019-02-27T13:55:21.669Z,27.90
2019-02-27T13:57:50.130Z,28.00
2019-02-27T14:00:30.277Z,27.80
2019-02-27T14:02:58.850Z,27.20
2019-02-27T14:05:29.318Z,26.90
2019-02-27T14:07:58.763Z,27.50
2019-02-27T14:10:34.198Z,27.40
2019-02-27T14:13:02.626Z,26.90
2019-02-27T14:15:31.823Z,26.80
2019-02-27T14:18:00.447Z,26.90
2019-02-27T14:20:29.462Z,26.90
2019-02-27T14:22:58.185Z,27.00
2019-02-27T14:25:33.396Z,27.20
2019-02-27T14:28:02.323Z,27.90
2019-02-27T14:30:45.393Z,27.80
2019-02-27T14:33:13.834Z,27.80
2019-02-27T14:35:42.237Z,27.90
2019-02-27T14:38:10.729Z,27.90
2019-02-27T14:40:41.218Z,28.70
2019-02-27T14:43:09.323Z,29.20
2019-02-27T14:45:40.628Z,30.00
2019-02-27T14:48:07.949Z,30.80
2019-02-27T14:50:36.352Z,31.00
2019-02-27T14:53:04.992Z,31.10
2019-02-27T14:55:35.946Z,30.90
2019-02-27T14:58:03.545Z,30.50
2019-02-27T15:00:39.784Z,30.10
2019-02-27T15:03:07.075Z,29.40
2019-02-27T15:05:36.809Z,29.10
2019-02-27T15:08:05.764Z,29.60
2019-02-27T15:10:34.170Z,30.10
2019-02-27T15:13:02.569Z,29.70
2019-02-27T15:15:32.296Z,29.10
2019-02-27T15:18:01.543Z,28.40
2019-02-27T15:20:30.788Z,27.70
2019-02-27T15:22:59.481Z,27.10
2019-02-27T15:25:28.084Z,26.90
2019-02-27T15:27:58.714Z,27.10
2019-02-27T15:30:31.174Z,27.30
2019-02-27T15:33:03.989Z,28.00
2019-02-27T15:35:29.924Z,27.70
2019-02-27T15:37:58.358Z,27.20
2019-02-27T15:40:29.695Z,27.10
2019-02-27T15:42:58.554Z,27.30
2019-02-27T15:45:28.130Z,27.60
2019-02-27T15:47:56.707Z,28.20
2019-02-27T15:50:27.714Z,28.50
2019-02-27T15:52:56.161Z,28.70
2019-02-27T15:55:24.663Z,28.70
2019-02-27T15:57:54.150Z,28.40
2019-02-27T16:00:25.090Z,27.80
2019-02-27T16:02:53.569Z,27.00
2019-02-27T16:05:22.172Z,26.30
2019-02-27T16:07:50.732Z,25.80
2019-02-27T16:10:27.033Z,25.40
2019-02-27T16:13:00.012Z,25.10
2019-02-27T16:15:25.943Z,25.10
2019-02-27T16:17:54.409Z,25.00
2019-02-27T16:20:23.957Z,24.90
2019-02-27T16:22:52.666Z,24.70
2019-02-27T16:25:22.612Z,24.30
2019-02-27T16:27:51.008Z,24.00
2019-02-27T16:30:31.113Z,23.70
2019-02-27T16:32:57.694Z,23.30
2019-02-27T16:35:26.082Z,22.90
2019-02-27T16:37:57.684Z,22.40
2019-02-27T16:40:26.363Z,22.10
2019-02-27T16:42:54.834Z,21.70
2019-02-27T16:45:36.753Z,21.50
2019-02-27T16:48:05.650Z,21.50
2019-02-27T16:50:34.231Z,21.60
2019-02-27T16:53:02.691Z,21.60
2019-02-27T16:55:36.037Z,21.40
2019-02-27T16:58:01.947Z,21.10
2019-02-27T17:00:36.222Z,20.80
2019-02-27T17:03:04.689Z,20.40
2019-02-27T17:05:33.085Z,20.00
2019-02-27T17:08:02.685Z,19.70
2019-02-27T17:10:38.882Z,19.40
2019-02-27T17:13:07.309Z,19.20
2019-02-27T17:15:36.447Z,19.00
2019-02-27T17:18:05.321Z,18.70
2019-02-27T17:20:33.825Z,18.50
2019-02-27T17:23:07.605Z,18.20
2019-02-27T17:25:32.515Z,18.00
2019-02-27T17:28:01.139Z,17.80
2019-02-27T17:30:36.720Z,17.60
2019-02-27T17:33:04.210Z,17.40
2019-02-27T17:35:32.418Z,17.30
2019-02-27T17:38:00.834Z,17.10
2019-02-27T17:40:29.441Z,16.90
2019-02-27T17:42:57.974Z,16.80
2019-02-27T17:45:27.573Z,16.60
2019-02-27T17:47:56.279Z,16.50
2019-02-27T17:50:24.978Z,16.40
2019-02-27T17:52:53.418Z,16.30
2019-02-27T17:55:21.814Z,16.20
2019-02-27T17:57:50.275Z,16.10
2019-02-27T18:00:28.200Z,16.00
2019-02-27T18:02:56.145Z,15.80
2019-02-27T18:05:25.526Z,15.70
2019-02-27T18:07:54.802Z,15.50
2019-02-27T18:10:23.275Z,15.40
2019-02-27T18:12:51.805Z,15.30
2019-02-27T18:15:21.804Z,15.10
2019-02-27T18:17:50.432Z,15.00
2019-02-27T18:20:24.179Z,14.80
2019-02-27T18:22:50.224Z,14.70
2019-02-27T18:25:19.093Z,14.60
2019-02-27T18:27:48.010Z,14.50
2019-02-27T18:30:21.441Z,14.30
2019-02-27T18:32:50.201Z,14.30
2019-02-27T18:35:19.615Z,14.20
2019-02-27T18:37:53.353Z,14.10
2019-02-27T18:40:19.146Z,14.00
2019-02-27T18:42:47.640Z,13.90
2019-02-27T18:45:20.366Z,13.80
2019-02-27T18:47:48.863Z,13.60
2019-02-27T18:50:17.450Z,13.50
2019-02-27T18:52:45.866Z,13.40
2019-02-27T18:55:17.451Z,13.30
2019-02-27T18:57:47.202Z,13.20
2019-02-27T19:00:27.190Z,13.10
2019-02-27T19:02:58.318Z,13.00
2019-02-27T19:05:26.770Z,12.90
2019-02-27T19:07:55.561Z,12.90
2019-02-27T19:10:24.321Z,12.70
2019-02-27T19:12:52.924Z,12.60
2019-02-27T19:15:23.966Z,12.60
2019-02-27T19:17:52.401Z,12.50
2019-02-27T19:20:24.836Z,12.50
2019-02-27T19:22:53.558Z,12.40
2019-02-27T19:25:22.015Z,12.40
2019-02-27T19:27:50.668Z,12.40
2019-02-27T19:30:19.709Z,12.30
2019-02-27T19:32:48.451Z,12.30
2019-02-27T19:35:21.314Z,12.30
2019-02-27T19:37:47.434Z,12.30
2019-02-27T19:40:18.282Z,12.30
2019-02-27T19:42:57.238Z,12.20
2019-02-27T19:45:25.922Z,12.10
2019-02-27T19:47:55.785Z,12.00
2019-02-27T19:50:24.896Z,12.00
2019-02-27T19:52:53.362Z,11.90
2019-02-27T19:55:26.540Z,11.80
2019-02-27T19:57:51.994Z,11.70
2019-02-27T20:00:23.338Z,11.70
2019-02-27T20:02:55.179Z,11.60
2019-02-27T20:05:22.429Z,11.70
2019-02-27T20:07:51.070Z,11.60
2019-02-27T20:10:19.466Z,11.50
2019-02-27T20:12:52.970Z,11.50
2019-02-27T20:15:23.461Z,11.40
2019-02-27T20:17:52.946Z,11.40
2019-02-27T20:20:22.706Z,11.40
2019-02-27T20:22:53.614Z,11.30
2019-02-27T20:25:24.594Z,11.30
2019-02-27T20:27:53.423Z,11.30
2019-02-27T20:30:25.209Z,11.30
2019-02-27T20:32:54.109Z,11.20
2019-02-27T20:35:22.570Z,11.20
2019-02-27T20:37:51.162Z,11.10
2019-02-27T20:40:20.637Z,11.10
2019-02-27T20:42:51.468Z,11.00
2019-02-27T20:45:21.447Z,11.00
2019-02-27T20:47:50.871Z,11.00
2019-02-27T20:50:34.932Z,11.00
2019-02-27T20:53:01.666Z,10.90
2019-02-27T20:55:30.923Z,10.90
2019-02-27T20:58:00.289Z,10.90
2019-02-27T21:00:28.742Z,10.90
2019-02-27T21:02:57.146Z,10.90
2019-02-27T21:05:25.546Z,10.80
2019-02-27T21:07:53.991Z,10.80
2019-02-27T21:10:30.797Z,10.80
2019-02-27T21:12:59.250Z,10.80
2019-02-27T21:15:29.275Z,10.80
2019-02-27T21:17:58.736Z,10.80
2019-02-27T21:20:27.353Z,10.80
2019-02-27T21:22:55.842Z,10.80
2019-02-27T21:25:24.236Z,10.70
2019-02-27T21:27:52.813Z,10.60
2019-02-27T21:30:22.412Z,10.50
2019-02-27T21:32:50.985Z,10.40
2019-02-27T21:35:19.417Z,10.40
2019-02-27T21:37:47.866Z,10.30
2019-02-27T21:40:18.415Z,10.20
2019-02-27T21:42:47.089Z,10.20
2019-02-27T21:45:20.825Z,10.10
2019-02-27T21:47:51.781Z,10.10
2019-02-27T21:50:20.909Z,10.10
2019-02-27T21:52:49.467Z,10.00
2019-02-27T21:55:17.876Z,10.00
2019-02-27T21:57:46.273Z,9.90
2019-02-27T22:00:21.605Z,9.90
2019-02-27T22:02:50.241Z,9.80
2019-02-27T22:05:19.692Z,9.80
2019-02-27T22:07:48.601Z,9.80
2019-02-27T22:10:19.464Z,9.80
2019-02-27T22:12:47.845Z,9.70
2019-02-27T22:15:23.158Z,9.70
2019-02-27T22:17:51.746Z,9.60
2019-02-27T22:20:20.143Z,9.60
2019-02-27T22:22:48.571Z,9.60
2019-02-27T22:25:16.997Z,9.50
2019-02-27T22:27:45.967Z,9.40
2019-02-27T22:30:17.378Z,9.40
2019-02-27T22:32:48.171Z,9.30
2019-02-27T22:35:15.915Z,9.30
2019-02-27T22:37:44.808Z,9.20
2019-02-27T22:40:16.324Z,9.20
2019-02-27T22:42:45.453Z,9.30
2019-02-27T22:45:17.257Z,9.20
2019-02-27T22:47:45.877Z,9.20
2019-02-27T22:50:16.214Z,9.10
2019-02-27T22:52:44.610Z,9.10
2019-02-27T22:55:13.207Z,9.00
2019-02-27T22:57:41.634Z,9.10
2019-02-27T23:00:29.489Z,9.00
2019-02-27T23:02:58.425Z,9.00
2019-02-27T23:05:26.825Z,8.90
2019-02-27T23:07:55.437Z,8.90
2019-02-27T23:10:23.906Z,8.90
2019-02-27T23:12:52.314Z,8.80
2019-02-27T23:15:20.737Z,8.70
2019-02-27T23:17:49.145Z,8.60
2019-02-27T23:20:21.090Z,8.60
2019-02-27T23:22:47.702Z,8.50
2019-02-27T23:25:17.594Z,8.40
2019-02-27T23:27:46.019Z,8.40
2019-02-27T23:30:15.817Z,8.30
2019-02-27T23:32:44.519Z,8.30
2019-02-27T23:35:15.731Z,8.20
2019-02-27T23:37:43.045Z,8.20
2019-02-27T23:40:17.160Z,8.30
2019-02-27T23:42:41.779Z,8.20
2019-02-27T23:45:11.037Z,8.20
2019-02-27T23:47:39.604Z,8.10
2019-02-27T23:50:13.402Z,8.10
2019-02-27T23:52:41.811Z,8.10
2019-02-27T23:55:10.903Z,8.00
2019-02-27T23:57:39.480Z,8.00
